Mercer, North Dakota
Current Conditions -  °F | °C
As of 11:35 PM on Friday 19 Dec 2014 (Local Time) from K5H4 Reporting Station
Haze Haze  
Wind Chill: 25°   Ceiling: 100
Heat Index: 25°   Visibility: 0.75mi
Dew Point: 25°   Wind: 3mph
Humidity: 100%   Direction: 290°WNW
Pressure: 29.96"   Gusts: NA
Location:  47.49°N, 100.71°W
Report Text: K5H4 200535Z AUTO 29003KT 3/4SM BR OVC001 M04/M04 A2996 RMK AO2
Loading
Personal Weather Stations






























Interactive Weather Map New forecast layout! Learn more

10-Day Weather Forecast

Advertisements
Track Severe Weather on mobile